If you wish to contribute or participate in the discussions about articles you are invited to join SKYbrary as a registered user

 Actions

Sarajevo

From SKYbrary Wiki

LQSA
Airport
ICAO: LQSA
Summary
Name Sarajevo
Region Europe
Territory Bosnia and Herzegovina BA.gif
Location Butmir
Serving
Coordinates 43° 49' 28.00" N, 18° 19' 53.00" E
Runways
Designator Length Width Surface ROPS
12/30 2641 m8,664.698 ft
46 m150.919 ft
ASP yes/yes


METAR
Observation LQSA 050730Z 30001KT 9999 FEW040 BKN050 20/16 Q1019 NOSIG
Station Sarajevo
Date/Time 05 July 2020 07:30:00
Wind direction 300°
Wind speed 01 kts
Lowest cloud amount few clouds
Temperature 20°C
Dew point 16°C
Humidity 77%
QNH 1019 hPa
Weather condition n/a

Sarajevo Airport

ICAO: LQSA IATA: SSJ

Description

Sarajevo International Airport, also known as Butmir Airport, is the main international airport in Bosnia and Herzegovina, located 3.3 nm6,111.6 m
6.112 km
20,051.181 ft
southwest of the capital city of Sarajevo in the suburb of Butmir.

Climatology

Humid continental climate (Köppen climate classification Dfa) - characterized by four seasons: cold, windy, snowy winters, mild springs, hot, humid summers, and crisp and relatively short autumns. Precipitation reaches its lowest in January and February and peaks in summer and latter half of spring.

Maps

Terrain

Loading map...

Airport Layout

Loading map...


Accidents & Serious Incidents at or in vicinity of LQSA

None on SKYbrary